sensor_id;sensor_type;location;lat;lon;timestamp;P1;durP1;ratioP1;P2;durP2;ratioP2
65936;SDS011;52707;52.086;5.418;2023-03-31T00:01:30;20.33;;;3.53;;
65936;SDS011;52707;52.086;5.418;2023-03-31T00:03:59;15.75;;;2.70;;
65936;SDS011;52707;52.086;5.418;2023-03-31T00:06:31;22.90;;;3.78;;
65936;SDS011;52707;52.086;5.418;2023-03-31T00:09:24;23.65;;;3.42;;
65936;SDS011;52707;52.086;5.418;2023-03-31T00:11:50;15.93;;;3.78;;
65936;SDS011;52707;52.086;5.418;2023-03-31T00:14:17;18.92;;;3.78;;
65936;SDS011;52707;52.086;5.418;2023-03-31T00:16:44;20.33;;;3.30;;
65936;SDS011;52707;52.086;5.418;2023-03-31T00:19:11;16.27;;;2.97;;
65936;SDS011;52707;52.086;5.418;2023-03-31T00:21:43;19.17;;;3.25;;
65936;SDS011;52707;52.086;5.418;2023-03-31T00:24:13;23.40;;;4.22;;
65936;SDS011;52707;52.086;5.418;2023-03-31T00:26:40;14.60;;;3.08;;
65936;SDS011;52707;52.086;5.418;2023-03-31T00:29:06;15.27;;;2.63;;
65936;SDS011;52707;52.086;5.418;2023-03-31T00:31:33;15.70;;;3.08;;
65936;SDS011;52707;52.086;5.418;2023-03-31T00:34:01;14.68;;;2.88;;
65936;SDS011;52707;52.086;5.418;2023-03-31T00:36:28;20.20;;;3.15;;
65936;SDS011;52707;52.086;5.418;2023-03-31T00:38:56;18.13;;;3.30;;
65936;SDS011;52707;52.086;5.418;2023-03-31T00:41:25;19.25;;;2.72;;
65936;SDS011;52707;52.086;5.418;2023-03-31T00:46:43;18.88;;;2.85;;
65936;SDS011;52707;52.086;5.418;2023-03-31T00:49:16;15.32;;;3.00;;
65936;SDS011;52707;52.086;5.418;2023-03-31T00:51:46;20.33;;;3.55;;
65936;SDS011;52707;52.086;5.418;2023-03-31T00:54:13;17.23;;;2.92;;
65936;SDS011;52707;52.086;5.418;2023-03-31T00:56:41;14.80;;;2.53;;
65936;SDS011;52707;52.086;5.418;2023-03-31T00:59:10;11.50;;;2.60;;
65936;SDS011;52707;52.086;5.418;2023-03-31T01:01:36;20.00;;;3.70;;
65936;SDS011;52707;52.086;5.418;2023-03-31T01:04:05;10.27;;;2.30;;
65936;SDS011;52707;52.086;5.418;2023-03-31T01:06:32;13.98;;;3.17;;
65936;SDS011;52707;52.086;5.418;2023-03-31T01:08:59;18.15;;;3.00;;
65936;SDS011;52707;52.086;5.418;2023-03-31T01:11:28;15.57;;;3.63;;
65936;SDS011;52707;52.086;5.418;2023-03-31T01:13:56;13.52;;;3.08;;
65936;SDS011;52707;52.086;5.418;2023-03-31T01:16:23;18.42;;;4.22;;
65936;SDS011;52707;52.086;5.418;2023-03-31T01:18:49;12.68;;;2.67;;
65936;SDS011;52707;52.086;5.418;2023-03-31T01:39:55;13.30;;;2.97;;
65936;SDS011;52707;52.086;5.418;2023-03-31T01:42:34;15.55;;;3.05;;
65936;SDS011;52707;52.086;5.418;2023-03-31T01:47:34;13.65;;;4.03;;
65936;SDS011;52707;52.086;5.418;2023-03-31T01:52:44;10.10;;;3.55;;
65936;SDS011;52707;52.086;5.418;2023-03-31T01:55:16;14.77;;;3.72;;
65936;SDS011;52707;52.086;5.418;2023-03-31T01:57:46;13.27;;;3.65;;
65936;SDS011;52707;52.086;5.418;2023-03-31T02:00:13;13.77;;;3.33;;
65936;SDS011;52707;52.086;5.418;2023-03-31T02:02:48;14.80;;;3.42;;
65936;SDS011;52707;52.086;5.418;2023-03-31T02:05:19;10.02;;;3.45;;
65936;SDS011;52707;52.086;5.418;2023-03-31T02:07:55;13.25;;;3.08;;
65936;SDS011;52707;52.086;5.418;2023-03-31T02:10:23;11.63;;;2.65;;
65936;SDS011;52707;52.086;5.418;2023-03-31T02:12:50;12.43;;;2.95;;
65936;SDS011;52707;52.086;5.418;2023-03-31T02:15:20;12.27;;;3.47;;
65936;SDS011;52707;52.086;5.418;2023-03-31T02:17:50;19.42;;;4.18;;
65936;SDS011;52707;52.086;5.418;2023-03-31T02:20:20;13.70;;;3.35;;
65936;SDS011;52707;52.086;5.418;2023-03-31T02:22:52;17.65;;;3.95;;
65936;SDS011;52707;52.086;5.418;2023-03-31T02:25:21;13.55;;;3.25;;
65936;SDS011;52707;52.086;5.418;2023-03-31T02:27:50;17.83;;;3.20;;
65936;SDS011;52707;52.086;5.418;2023-03-31T02:30:18;22.15;;;4.03;;
65936;SDS011;52707;52.086;5.418;2023-03-31T02:32:44;12.98;;;3.00;;
65936;SDS011;52707;52.086;5.418;2023-03-31T02:35:14;15.38;;;3.20;;
65936;SDS011;52707;52.086;5.418;2023-03-31T02:37:40;14.77;;;3.13;;
65936;SDS011;52707;52.086;5.418;2023-03-31T02:40:09;15.90;;;3.10;;
65936;SDS011;52707;52.086;5.418;2023-03-31T02:42:39;17.90;;;4.10;;
65936;SDS011;52707;52.086;5.418;2023-03-31T02:45:33;24.67;;;4.07;;
65936;SDS011;52707;52.086;5.418;2023-03-31T02:47:53;24.40;;;4.50;;
65936;SDS011;52707;52.086;5.418;2023-03-31T02:50:20;19.92;;;3.67;;
65936;SDS011;52707;52.086;5.418;2023-03-31T02:52:57;14.05;;;3.15;;
65936;SDS011;52707;52.086;5.418;2023-03-31T02:55:34;19.05;;;3.97;;
65936;SDS011;52707;52.086;5.418;2023-03-31T03:03:22;14.32;;;3.13;;
65936;SDS011;52707;52.086;5.418;2023-03-31T03:08:36;19.07;;;3.90;;
65936;SDS011;52707;52.086;5.418;2023-03-31T03:11:13;14.05;;;3.47;;
65936;SDS011;52707;52.086;5.418;2023-03-31T03:18:59;16.40;;;3.28;;
65936;SDS011;52707;52.086;5.418;2023-03-31T03:21:27;12.57;;;3.00;;
65936;SDS011;52707;52.086;5.418;2023-03-31T03:23:53;14.07;;;2.25;;
65936;SDS011;52707;52.086;5.418;2023-03-31T03:26:20;13.48;;;2.78;;
65936;SDS011;52707;52.086;5.418;2023-03-31T03:28:51;11.45;;;2.22;;
65936;SDS011;52707;52.086;5.418;2023-03-31T03:31:18;20.40;;;3.13;;
65936;SDS011;52707;52.086;5.418;2023-03-31T03:33:44;16.23;;;2.67;;
65936;SDS011;52707;52.086;5.418;2023-03-31T03:36:11;12.80;;;2.33;;
65936;SDS011;52707;52.086;5.418;2023-03-31T03:38:38;12.13;;;2.30;;
65936;SDS011;52707;52.086;5.418;2023-03-31T03:41:04;19.92;;;3.28;;
65936;SDS011;52707;52.086;5.418;2023-03-31T03:43:30;21.05;;;2.85;;
65936;SDS011;52707;52.086;5.418;2023-03-31T03:45:57;17.55;;;3.35;;
65936;SDS011;52707;52.086;5.418;2023-03-31T03:48:23;19.58;;;2.95;;
65936;SDS011;52707;52.086;5.418;2023-03-31T03:50:49;13.65;;;2.53;;
65936;SDS011;52707;52.086;5.418;2023-03-31T03:53:17;18.58;;;3.20;;
65936;SDS011;52707;52.086;5.418;2023-03-31T03:55:44;13.85;;;2.72;;
65936;SDS011;52707;52.086;5.418;2023-03-31T03:58:10;8.02;;;2.20;;
65936;SDS011;52707;52.086;5.418;2023-03-31T04:00:37;11.85;;;2.42;;
65936;SDS011;52707;52.086;5.418;2023-03-31T04:03:03;12.30;;;2.95;;
65936;SDS011;52707;52.086;5.418;2023-03-31T04:05:30;11.95;;;2.33;;
65936;SDS011;52707;52.086;5.418;2023-03-31T04:07:56;7.30;;;2.15;;
65936;SDS011;52707;52.086;5.418;2023-03-31T04:10:22;14.65;;;2.25;;
65936;SDS011;52707;52.086;5.418;2023-03-31T04:12:49;12.70;;;2.00;;
65936;SDS011;52707;52.086;5.418;2023-03-31T04:15:15;15.05;;;2.35;;
65936;SDS011;52707;52.086;5.418;2023-03-31T04:17:41;9.48;;;1.85;;
65936;SDS011;52707;52.086;5.418;2023-03-31T04:20:16;11.88;;;1.95;;
65936;SDS011;52707;52.086;5.418;2023-03-31T04:22:43;11.75;;;2.15;;
65936;SDS011;52707;52.086;5.418;2023-03-31T04:25:13;7.10;;;1.75;;
65936;SDS011;52707;52.086;5.418;2023-03-31T04:27:42;17.65;;;2.30;;
65936;SDS011;52707;52.086;5.418;2023-03-31T04:30:16;6.97;;;1.80;;
65936;SDS011;52707;52.086;5.418;2023-03-31T04:32:51;14.95;;;2.55;;
65936;SDS011;52707;52.086;5.418;2023-03-31T04:37:49;16.02;;;2.10;;
65936;SDS011;52707;52.086;5.418;2023-03-31T04:40:17;13.23;;;2.70;;
65936;SDS011;52707;52.086;5.418;2023-03-31T04:42:43;9.38;;;2.42;;
65936;SDS011;52707;52.086;5.418;2023-03-31T04:45:10;11.60;;;2.13;;
65936;SDS011;52707;52.086;5.418;2023-03-31T04:47:37;12.13;;;2.67;;
65936;SDS011;52707;52.086;5.418;2023-03-31T04:50:04;17.17;;;3.00;;
65936;SDS011;52707;52.086;5.418;2023-03-31T04:52:30;13.23;;;3.05;;
65936;SDS011;52707;52.086;5.418;2023-03-31T04:54:56;13.70;;;2.95;;
65936;SDS011;52707;52.086;5.418;2023-03-31T04:57:23;16.52;;;3.47;;
65936;SDS011;52707;52.086;5.418;2023-03-31T04:59:49;12.00;;;3.28;;
65936;SDS011;52707;52.086;5.418;2023-03-31T05:02:16;11.85;;;3.00;;
65936;SDS011;52707;52.086;5.418;2023-03-31T05:04:50;18.17;;;3.28;;
65936;SDS011;52707;52.086;5.418;2023-03-31T05:07:18;15.73;;;3.35;;
65936;SDS011;52707;52.086;5.418;2023-03-31T05:09:44;14.30;;;3.28;;
65936;SDS011;52707;52.086;5.418;2023-03-31T05:12:11;15.73;;;3.35;;
65936;SDS011;52707;52.086;5.418;2023-03-31T05:14:38;12.25;;;2.80;;
65936;SDS011;52707;52.086;5.418;2023-03-31T05:17:04;11.70;;;2.78;;
65936;SDS011;52707;52.086;5.418;2023-03-31T05:19:30;7.93;;;2.47;;
65936;SDS011;52707;52.086;5.418;2023-03-31T05:21:57;14.15;;;3.05;;
65936;SDS011;52707;52.086;5.418;2023-03-31T05:24:23;11.70;;;2.63;;
65936;SDS011;52707;52.086;5.418;2023-03-31T05:26:49;11.32;;;2.78;;
65936;SDS011;52707;52.086;5.418;2023-03-31T05:29:18;12.85;;;2.92;;
65936;SDS011;52707;52.086;5.418;2023-03-31T05:31:44;8.20;;;1.98;;
65936;SDS011;52707;52.086;5.418;2023-03-31T05:34:11;12.57;;;2.45;;
65936;SDS011;52707;52.086;5.418;2023-03-31T05:36:37;12.52;;;2.95;;
65936;SDS011;52707;52.086;5.418;2023-03-31T05:39:04;14.55;;;2.97;;
65936;SDS011;52707;52.086;5.418;2023-03-31T05:41:30;14.07;;;2.42;;
65936;SDS011;52707;52.086;5.418;2023-03-31T05:43:57;9.68;;;2.13;;
65936;SDS011;52707;52.086;5.418;2023-03-31T05:46:23;10.95;;;2.50;;
65936;SDS011;52707;52.086;5.418;2023-03-31T05:48:50;22.75;;;2.25;;
65936;SDS011;52707;52.086;5.418;2023-03-31T05:51:16;15.07;;;2.60;;
65936;SDS011;52707;52.086;5.418;2023-03-31T05:53:42;9.90;;;2.17;;
65936;SDS011;52707;52.086;5.418;2023-03-31T05:56:09;12.13;;;2.10;;
65936;SDS011;52707;52.086;5.418;2023-03-31T05:58:37;11.07;;;2.10;;
65936;SDS011;52707;52.086;5.418;2023-03-31T06:01:07;11.35;;;2.55;;
65936;SDS011;52707;52.086;5.418;2023-03-31T06:03:36;10.45;;;2.35;;
65936;SDS011;52707;52.086;5.418;2023-03-31T06:06:03;12.15;;;2.80;;
65936;SDS011;52707;52.086;5.418;2023-03-31T06:08:31;6.85;;;1.98;;
65936;SDS011;52707;52.086;5.418;2023-03-31T06:10:57;9.18;;;2.03;;
65936;SDS011;52707;52.086;5.418;2023-03-31T06:13:23;7.38;;;1.85;;
65936;SDS011;52707;52.086;5.418;2023-03-31T06:15:56;12.30;;;2.00;;
65936;SDS011;52707;52.086;5.418;2023-03-31T06:18:24;16.05;;;2.28;;
65936;SDS011;52707;52.086;5.418;2023-03-31T06:20:51;10.82;;;2.53;;
65936;SDS011;52707;52.086;5.418;2023-03-31T06:23:18;9.57;;;2.00;;
65936;SDS011;52707;52.086;5.418;2023-03-31T06:25:44;5.07;;;1.50;;
65936;SDS011;52707;52.086;5.418;2023-03-31T06:28:17;5.18;;;1.67;;
65936;SDS011;52707;52.086;5.418;2023-03-31T06:30:43;11.27;;;2.28;;
65936;SDS011;52707;52.086;5.418;2023-03-31T06:33:10;7.60;;;1.45;;
65936;SDS011;52707;52.086;5.418;2023-03-31T06:35:37;7.45;;;1.80;;
65936;SDS011;52707;52.086;5.418;2023-03-31T06:38:03;7.38;;;1.80;;
65936;SDS011;52707;52.086;5.418;2023-03-31T06:40:30;7.72;;;1.60;;
65936;SDS011;52707;52.086;5.418;2023-03-31T06:42:57;6.05;;;1.60;;
65936;SDS011;52707;52.086;5.418;2023-03-31T06:45:23;7.38;;;1.40;;
65936;SDS011;52707;52.086;5.418;2023-03-31T06:47:49;7.75;;;2.00;;
65936;SDS011;52707;52.086;5.418;2023-03-31T06:50:16;6.68;;;1.90;;
65936;SDS011;52707;52.086;5.418;2023-03-31T06:52:42;6.72;;;1.50;;
65936;SDS011;52707;52.086;5.418;2023-03-31T06:55:09;4.85;;;1.55;;
65936;SDS011;52707;52.086;5.418;2023-03-31T06:57:35;12.00;;;1.55;;
65936;SDS011;52707;52.086;5.418;2023-03-31T07:00:03;9.68;;;1.98;;
65936;SDS011;52707;52.086;5.418;2023-03-31T07:02:29;8.10;;;1.58;;
65936;SDS011;52707;52.086;5.418;2023-03-31T07:04:56;5.32;;;1.35;;
65936;SDS011;52707;52.086;5.418;2023-03-31T07:07:22;2.88;;;0.60;;
65936;SDS011;52707;52.086;5.418;2023-03-31T07:09:48;5.97;;;1.02;;
65936;SDS011;52707;52.086;5.418;2023-03-31T07:12:15;9.05;;;1.30;;
65936;SDS011;52707;52.086;5.418;2023-03-31T07:14:42;6.63;;;1.33;;
65936;SDS011;52707;52.086;5.418;2023-03-31T07:17:09;7.45;;;1.17;;
65936;SDS011;52707;52.086;5.418;2023-03-31T07:19:35;7.95;;;1.40;;
65936;SDS011;52707;52.086;5.418;2023-03-31T07:22:03;7.53;;;1.33;;
65936;SDS011;52707;52.086;5.418;2023-03-31T07:24:31;7.85;;;1.40;;
65936;SDS011;52707;52.086;5.418;2023-03-31T07:26:57;14.05;;;1.45;;
65936;SDS011;52707;52.086;5.418;2023-03-31T07:29:23;8.52;;;1.60;;
65936;SDS011;52707;52.086;5.418;2023-03-31T07:31:50;8.30;;;1.50;;
65936;SDS011;52707;52.086;5.418;2023-03-31T07:34:17;6.15;;;1.15;;
65936;SDS011;52707;52.086;5.418;2023-03-31T07:36:43;3.85;;;1.30;;
65936;SDS011;52707;52.086;5.418;2023-03-31T07:39:10;4.75;;;1.40;;
65936;SDS011;52707;52.086;5.418;2023-03-31T07:41:36;6.00;;;1.38;;
65936;SDS011;52707;52.086;5.418;2023-03-31T07:44:02;5.85;;;1.70;;
65936;SDS011;52707;52.086;5.418;2023-03-31T07:46:29;8.57;;;1.90;;
65936;SDS011;52707;52.086;5.418;2023-03-31T07:48:56;5.03;;;1.42;;
65936;SDS011;52707;52.086;5.418;2023-03-31T07:51:24;12.00;;;1.50;;
65936;SDS011;52707;52.086;5.418;2023-03-31T07:53:51;12.48;;;1.65;;
65936;SDS011;52707;52.086;5.418;2023-03-31T07:56:19;3.80;;;1.38;;
65936;SDS011;52707;52.086;5.418;2023-03-31T07:58:46;7.35;;;1.63;;
65936;SDS011;52707;52.086;5.418;2023-03-31T08:01:16;8.93;;;1.85;;
65936;SDS011;52707;52.086;5.418;2023-03-31T08:03:43;8.18;;;1.77;;
65936;SDS011;52707;52.086;5.418;2023-03-31T08:06:10;4.80;;;1.10;;
65936;SDS011;52707;52.086;5.418;2023-03-31T08:08:37;4.30;;;1.40;;
65936;SDS011;52707;52.086;5.418;2023-03-31T08:11:08;7.47;;;1.48;;
65936;SDS011;52707;52.086;5.418;2023-03-31T08:13:35;7.75;;;1.40;;
65936;SDS011;52707;52.086;5.418;2023-03-31T08:16:01;11.50;;;2.47;;
65936;SDS011;52707;52.086;5.418;2023-03-31T08:18:28;4.18;;;1.38;;
65936;SDS011;52707;52.086;5.418;2023-03-31T08:20:54;9.88;;;1.98;;
65936;SDS011;52707;52.086;5.418;2023-03-31T08:23:20;5.18;;;1.58;;
65936;SDS011;52707;52.086;5.418;2023-03-31T08:25:47;9.70;;;1.85;;
65936;SDS011;52707;52.086;5.418;2023-03-31T08:28:13;8.68;;;2.20;;
65936;SDS011;52707;52.086;5.418;2023-03-31T08:30:40;11.68;;;2.40;;
65936;SDS011;52707;52.086;5.418;2023-03-31T08:33:06;11.27;;;2.40;;
65936;SDS011;52707;52.086;5.418;2023-03-31T08:35:34;12.60;;;2.80;;
65936;SDS011;52707;52.086;5.418;2023-03-31T08:38:00;17.85;;;3.08;;
65936;SDS011;52707;52.086;5.418;2023-03-31T08:40:28;9.98;;;2.35;;
65936;SDS011;52707;52.086;5.418;2023-03-31T08:42:56;10.32;;;2.58;;
65936;SDS011;52707;52.086;5.418;2023-03-31T08:47:54;15.90;;;3.08;;
65936;SDS011;52707;52.086;5.418;2023-03-31T08:50:27;16.23;;;3.35;;
65936;SDS011;52707;52.086;5.418;2023-03-31T08:53:04;19.85;;;3.55;;
65936;SDS011;52707;52.086;5.418;2023-03-31T08:55:45;14.82;;;2.92;;
65936;SDS011;52707;52.086;5.418;2023-03-31T08:58:20;14.48;;;3.65;;
65936;SDS011;52707;52.086;5.418;2023-03-31T09:00:54;23.50;;;3.67;;
65936;SDS011;52707;52.086;5.418;2023-03-31T09:03:28;21.10;;;3.92;;
65936;SDS011;52707;52.086;5.418;2023-03-31T09:06:00;27.15;;;4.03;;
65936;SDS011;52707;52.086;5.418;2023-03-31T09:08:32;15.25;;;3.42;;
65936;SDS011;52707;52.086;5.418;2023-03-31T09:16:11;29.15;;;5.72;;
65936;SDS011;52707;52.086;5.418;2023-03-31T09:18:41;20.65;;;4.10;;
65936;SDS011;52707;52.086;5.418;2023-03-31T09:21:22;29.83;;;4.72;;
65936;SDS011;52707;52.086;5.418;2023-03-31T09:29:03;26.08;;;4.50;;
65936;SDS011;52707;52.086;5.418;2023-03-31T09:31:32;25.70;;;3.83;;
65936;SDS011;52707;52.086;5.418;2023-03-31T09:33:59;30.83;;;4.43;;
65936;SDS011;52707;52.086;5.418;2023-03-31T09:36:26;21.65;;;4.28;;
65936;SDS011;52707;52.086;5.418;2023-03-31T09:38:54;27.75;;;4.45;;
65936;SDS011;52707;52.086;5.418;2023-03-31T09:41:20;29.42;;;4.72;;
65936;SDS011;52707;52.086;5.418;2023-03-31T09:43:47;28.08;;;4.10;;
65936;SDS011;52707;52.086;5.418;2023-03-31T09:46:15;25.08;;;3.97;;
65936;SDS011;52707;52.086;5.418;2023-03-31T09:48:47;22.65;;;5.10;;
65936;SDS011;52707;52.086;5.418;2023-03-31T09:51:17;15.13;;;3.75;;
65936;SDS011;52707;52.086;5.418;2023-03-31T09:53:55;22.58;;;4.93;;
65936;SDS011;52707;52.086;5.418;2023-03-31T09:57:10;19.42;;;4.15;;
65936;SDS011;52707;52.086;5.418;2023-03-31T09:59:15;19.83;;;4.50;;
65936;SDS011;52707;52.086;5.418;2023-03-31T10:01:46;32.60;;;4.75;;
65936;SDS011;52707;52.086;5.418;2023-03-31T10:04:18;23.50;;;2.78;;
65936;SDS011;52707;52.086;5.418;2023-03-31T10:06:46;20.42;;;4.15;;
65936;SDS011;52707;52.086;5.418;2023-03-31T10:09:12;32.00;;;3.70;;
65936;SDS011;52707;52.086;5.418;2023-03-31T10:11:39;24.33;;;4.53;;
65936;SDS011;52707;52.086;5.418;2023-03-31T10:14:16;22.90;;;4.95;;
65936;SDS011;52707;52.086;5.418;2023-03-31T10:16:43;22.52;;;4.50;;
65936;SDS011;52707;52.086;5.418;2023-03-31T10:19:16;21.67;;;3.35;;
65936;SDS011;52707;52.086;5.418;2023-03-31T10:21:48;23.50;;;4.07;;
65936;SDS011;52707;52.086;5.418;2023-03-31T10:24:19;18.38;;;3.80;;
65936;SDS011;52707;52.086;5.418;2023-03-31T10:26:51;17.60;;;2.78;;
65936;SDS011;52707;52.086;5.418;2023-03-31T10:29:30;15.25;;;3.25;;
65936;SDS011;52707;52.086;5.418;2023-03-31T10:32:01;19.53;;;4.07;;
65936;SDS011;52707;52.086;5.418;2023-03-31T10:34:28;24.75;;;2.97;;
65936;SDS011;52707;52.086;5.418;2023-03-31T10:36:55;21.23;;;4.50;;
65936;SDS011;52707;52.086;5.418;2023-03-31T10:39:21;14.60;;;3.38;;
65936;SDS011;52707;52.086;5.418;2023-03-31T10:41:50;19.38;;;3.00;;
65936;SDS011;52707;52.086;5.418;2023-03-31T10:44:30;19.73;;;3.67;;
65936;SDS011;52707;52.086;5.418;2023-03-31T10:47:03;18.17;;;2.93;;
65936;SDS011;52707;52.086;5.418;2023-03-31T10:49:30;20.67;;;3.22;;
65936;SDS011;52707;52.086;5.418;2023-03-31T10:52:01;20.67;;;3.35;;
65936;SDS011;52707;52.086;5.418;2023-03-31T10:54:29;19.42;;;4.10;;
65936;SDS011;52707;52.086;5.418;2023-03-31T10:56:59;17.40;;;2.90;;
65936;SDS011;52707;52.086;5.418;2023-03-31T11:04:34;17.48;;;3.22;;
65936;SDS011;52707;52.086;5.418;2023-03-31T11:09:50;20.92;;;3.97;;
65936;SDS011;52707;52.086;5.418;2023-03-31T11:12:20;13.30;;;2.88;;
65936;SDS011;52707;52.086;5.418;2023-03-31T11:17:19;22.70;;;3.38;;
65936;SDS011;52707;52.086;5.418;2023-03-31T11:20:10;15.93;;;3.33;;
65936;SDS011;52707;52.086;5.418;2023-03-31T11:22:53;13.15;;;2.67;;
65936;SDS011;52707;52.086;5.418;2023-03-31T11:25:33;16.15;;;3.53;;
65936;SDS011;52707;52.086;5.418;2023-03-31T11:30:46;14.40;;;2.67;;
65936;SDS011;52707;52.086;5.418;2023-03-31T11:33:29;16.25;;;2.88;;
65936;SDS011;52707;52.086;5.418;2023-03-31T11:38:58;20.65;;;3.42;;
65936;SDS011;52707;52.086;5.418;2023-03-31T11:41:43;19.40;;;3.55;;
65936;SDS011;52707;52.086;5.418;2023-03-31T11:44:13;15.38;;;2.95;;
65936;SDS011;52707;52.086;5.418;2023-03-31T11:46:45;21.88;;;3.63;;
65936;SDS011;52707;52.086;5.418;2023-03-31T11:54:34;16.88;;;3.20;;
65936;SDS011;52707;52.086;5.418;2023-03-31T11:57:16;19.02;;;3.83;;
65936;SDS011;52707;52.086;5.418;2023-03-31T11:59:45;17.25;;;3.70;;
65936;SDS011;52707;52.086;5.418;2023-03-31T12:02:15;19.03;;;3.47;;
65936;SDS011;52707;52.086;5.418;2023-03-31T12:04:44;20.70;;;3.95;;
65936;SDS011;52707;52.086;5.418;2023-03-31T12:13:01;22.10;;;3.38;;
65936;SDS011;52707;52.086;5.418;2023-03-31T12:15:36;20.92;;;4.38;;
65936;SDS011;52707;52.086;5.418;2023-03-31T12:18:13;18.60;;;3.22;;
65936;SDS011;52707;52.086;5.418;2023-03-31T12:20:41;15.45;;;3.15;;
65936;SDS011;52707;52.086;5.418;2023-03-31T12:23:14;15.98;;;2.88;;
65936;SDS011;52707;52.086;5.418;2023-03-31T12:25:54;15.93;;;3.25;;
65936;SDS011;52707;52.086;5.418;2023-03-31T12:28:22;17.65;;;2.92;;
65936;SDS011;52707;52.086;5.418;2023-03-31T12:30:49;18.23;;;3.75;;
65936;SDS011;52707;52.086;5.418;2023-03-31T12:43:50;22.25;;;3.53;;
65936;SDS011;52707;52.086;5.418;2023-03-31T12:53:58;20.13;;;3.28;;
65936;SDS011;52707;52.086;5.418;2023-03-31T12:56:27;18.38;;;3.15;;
65936;SDS011;52707;52.086;5.418;2023-03-31T12:58:53;23.90;;;3.30;;
65936;SDS011;52707;52.086;5.418;2023-03-31T13:01:20;18.02;;;3.40;;
65936;SDS011;52707;52.086;5.418;2023-03-31T13:09:05;20.88;;;3.40;;
65936;SDS011;52707;52.086;5.418;2023-03-31T13:11:37;22.88;;;3.90;;
65936;SDS011;52707;52.086;5.418;2023-03-31T13:14:18;13.82;;;3.20;;
65936;SDS011;52707;52.086;5.418;2023-03-31T13:16:45;14.90;;;3.33;;
65936;SDS011;52707;52.086;5.418;2023-03-31T13:19:26;17.95;;;4.00;;
65936;SDS011;52707;52.086;5.418;2023-03-31T13:21:54;22.48;;;5.72;;
65936;SDS011;52707;52.086;5.418;2023-03-31T13:24:21;20.95;;;4.38;;
65936;SDS011;52707;52.086;5.418;2023-03-31T13:26:49;14.00;;;4.72;;
65936;SDS011;52707;52.086;5.418;2023-03-31T13:29:20;18.02;;;4.40;;
65936;SDS011;52707;52.086;5.418;2023-03-31T13:34:37;14.30;;;2.75;;
65936;SDS011;52707;52.086;5.418;2023-03-31T13:39:44;13.98;;;3.13;;
65936;SDS011;52707;52.086;5.418;2023-03-31T13:42:17;18.45;;;3.67;;
65936;SDS011;52707;52.086;5.418;2023-03-31T13:44:50;11.68;;;2.75;;
65936;SDS011;52707;52.086;5.418;2023-03-31T14:03:26;11.20;;;2.65;;
65936;SDS011;52707;52.086;5.418;2023-03-31T14:06:04;16.98;;;2.92;;
65936;SDS011;52707;52.086;5.418;2023-03-31T14:13:43;10.80;;;2.50;;
65936;SDS011;52707;52.086;5.418;2023-03-31T14:16:09;13.35;;;3.00;;
65936;SDS011;52707;52.086;5.418;2023-03-31T14:18:37;14.82;;;3.05;;
65936;SDS011;52707;52.086;5.418;2023-03-31T14:23:36;5.65;;;1.73;;
65936;SDS011;52707;52.086;5.418;2023-03-31T14:26:06;12.73;;;2.08;;
65936;SDS011;52707;52.086;5.418;2023-03-31T14:28:42;9.67;;;2.40;;
65936;SDS011;52707;52.086;5.418;2023-03-31T14:36:34;12.48;;;2.47;;
65936;SDS011;52707;52.086;5.418;2023-03-31T14:39:04;8.52;;;1.90;;
65936;SDS011;52707;52.086;5.418;2023-03-31T14:41:32;7.25;;;2.03;;
65936;SDS011;52707;52.086;5.418;2023-03-31T14:44:01;7.57;;;2.00;;
65936;SDS011;52707;52.086;5.418;2023-03-31T14:46:30;8.80;;;2.45;;
65936;SDS011;52707;52.086;5.418;2023-03-31T14:49:03;7.27;;;1.83;;
65936;SDS011;52707;52.086;5.418;2023-03-31T14:51:31;16.35;;;2.70;;
65936;SDS011;52707;52.086;5.418;2023-03-31T14:53:58;8.13;;;1.95;;
65936;SDS011;52707;52.086;5.418;2023-03-31T14:56:36;7.95;;;1.95;;
65936;SDS011;52707;52.086;5.418;2023-03-31T14:59:03;9.65;;;1.90;;
65936;SDS011;52707;52.086;5.418;2023-03-31T15:01:32;9.52;;;1.88;;
65936;SDS011;52707;52.086;5.418;2023-03-31T15:04:09;8.70;;;1.88;;
65936;SDS011;52707;52.086;5.418;2023-03-31T15:06:37;5.63;;;1.75;;
65936;SDS011;52707;52.086;5.418;2023-03-31T15:09:05;7.75;;;1.55;;
65936;SDS011;52707;52.086;5.418;2023-03-31T15:11:31;4.10;;;1.38;;
65936;SDS011;52707;52.086;5.418;2023-03-31T15:13:58;5.85;;;1.40;;
65936;SDS011;52707;52.086;5.418;2023-03-31T15:16:33;5.25;;;1.85;;
65936;SDS011;52707;52.086;5.418;2023-03-31T15:19:03;6.00;;;1.70;;
65936;SDS011;52707;52.086;5.418;2023-03-31T15:21:31;7.28;;;1.42;;
65936;SDS011;52707;52.086;5.418;2023-03-31T15:23:59;4.47;;;1.30;;
65936;SDS011;52707;52.086;5.418;2023-03-31T15:26:28;4.43;;;1.63;;
65936;SDS011;52707;52.086;5.418;2023-03-31T15:29:19;6.25;;;1.48;;
65936;SDS011;52707;52.086;5.418;2023-03-31T15:31:46;1.75;;;1.00;;
65936;SDS011;52707;52.086;5.418;2023-03-31T15:34:16;5.35;;;1.48;;
65936;SDS011;52707;52.086;5.418;2023-03-31T15:36:44;7.57;;;1.95;;
65936;SDS011;52707;52.086;5.418;2023-03-31T15:39:11;4.10;;;1.80;;
65936;SDS011;52707;52.086;5.418;2023-03-31T15:41:39;8.05;;;2.03;;
65936;SDS011;52707;52.086;5.418;2023-03-31T15:44:06;7.40;;;2.28;;
65936;SDS011;52707;52.086;5.418;2023-03-31T15:46:59;7.90;;;1.98;;
65936;SDS011;52707;52.086;5.418;2023-03-31T15:49:26;5.05;;;1.75;;
65936;SDS011;52707;52.086;5.418;2023-03-31T15:51:54;8.57;;;2.17;;
65936;SDS011;52707;52.086;5.418;2023-03-31T15:54:29;8.73;;;2.03;;
65936;SDS011;52707;52.086;5.418;2023-03-31T15:56:58;5.90;;;1.88;;
65936;SDS011;52707;52.086;5.418;2023-03-31T15:59:25;7.63;;;2.75;;
65936;SDS011;52707;52.086;5.418;2023-03-31T16:02:03;7.90;;;2.38;;
65936;SDS011;52707;52.086;5.418;2023-03-31T16:04:31;10.82;;;3.33;;
65936;SDS011;52707;52.086;5.418;2023-03-31T16:09:28;6.15;;;2.83;;
65936;SDS011;52707;52.086;5.418;2023-03-31T16:12:03;6.10;;;2.50;;
65936;SDS011;52707;52.086;5.418;2023-03-31T16:14:37;7.15;;;1.85;;
65936;SDS011;52707;52.086;5.418;2023-03-31T16:17:09;4.28;;;2.00;;
65936;SDS011;52707;52.086;5.418;2023-03-31T16:19:40;4.90;;;1.95;;
65936;SDS011;52707;52.086;5.418;2023-03-31T16:22:11;7.57;;;2.10;;
65936;SDS011;52707;52.086;5.418;2023-03-31T16:24:38;5.73;;;1.77;;
65936;SDS011;52707;52.086;5.418;2023-03-31T16:27:05;3.40;;;1.67;;
65936;SDS011;52707;52.086;5.418;2023-03-31T16:29:33;3.50;;;1.30;;
65936;SDS011;52707;52.086;5.418;2023-03-31T16:32:07;5.75;;;1.63;;
65936;SDS011;52707;52.086;5.418;2023-03-31T16:34:34;3.50;;;1.83;;
65936;SDS011;52707;52.086;5.418;2023-03-31T16:37:16;3.55;;;1.42;;
65936;SDS011;52707;52.086;5.418;2023-03-31T16:39:42;4.80;;;1.50;;
65936;SDS011;52707;52.086;5.418;2023-03-31T16:42:08;5.97;;;1.95;;
65936;SDS011;52707;52.086;5.418;2023-03-31T16:44:35;5.90;;;1.42;;
65936;SDS011;52707;52.086;5.418;2023-03-31T16:47:01;4.38;;;1.50;;
65936;SDS011;52707;52.086;5.418;2023-03-31T16:49:28;5.13;;;1.55;;
65936;SDS011;52707;52.086;5.418;2023-03-31T16:51:55;3.72;;;1.65;;
65936;SDS011;52707;52.086;5.418;2023-03-31T16:54:21;3.83;;;2.28;;
65936;SDS011;52707;52.086;5.418;2023-03-31T16:56:48;4.60;;;2.40;;
65936;SDS011;52707;52.086;5.418;2023-03-31T16:59:14;4.18;;;2.33;;
65936;SDS011;52707;52.086;5.418;2023-03-31T17:01:41;4.55;;;1.80;;
65936;SDS011;52707;52.086;5.418;2023-03-31T17:04:07;6.47;;;3.80;;
65936;SDS011;52707;52.086;5.418;2023-03-31T17:06:33;4.45;;;2.00;;
65936;SDS011;52707;52.086;5.418;2023-03-31T17:09:00;6.47;;;3.25;;
65936;SDS011;52707;52.086;5.418;2023-03-31T17:11:26;10.77;;;5.68;;
65936;SDS011;52707;52.086;5.418;2023-03-31T17:13:58;3.13;;;1.88;;